Piloto Civil Norberto Fernandez current weather conditions

sailwx.info

Air temperature 2.0° C
Dewpoint -3.0° C

Last reported at 2014-Oct-01 02:00 UTC.
Time now 2014-Oct-01 04:01 UTC

Location: S 51°37' W 069°19'.
View on Google Maps.

See reports from other nearby stations

  
Tides and Currents Weather Stations Pressure Air Temp Water Temp Dewpoint Dewpoint Depression Visibility Wind Speed Wind Dir Waves Ship Positions
date/time (UTC)wind fromknots sea level pressurealtimeterstation pressurevisibilityair tempwater tempwave heightnotes
2014-Oct-01 02:00 2.0
2014-Oct-01 01:00 230 6 4.0
2014-Oct-01 00:00 200 8 5.0
2014-Sep-30 23:00 200 7 6.0
2014-Sep-30 21:00 230 13 5.4 9.0
2014-Sep-30 20:00 230 11 5.4 9.0
2014-Sep-30 19:00 230 12 5.4 9.0
2014-Sep-30 18:00 230 16 5.4 8.0
2014-Sep-30 17:00 230 16 5.4 7.0
2014-Sep-30 16:00 230 15 5.4 6.0
2014-Sep-30 15:00 230 14 5.4 6.0
2014-Sep-30 14:00 230 11 5.4 5.0
2014-Sep-30 13:00 230 8 4.0
2014-Sep-30 12:00 250 6 2.0
2014-Sep-30 11:00 1.0
2014-Sep-30 10:00 250 6 1.0
2014-Sep-30 09:00 5.4 1.0
2014-Sep-30 08:00 5.4 2.0
2014-Sep-30 07:00 5.4 1.0
2014-Sep-30 06:00 5.4 1.0
2014-Sep-30 05:00 5.4-0.0
2014-Sep-30 04:00 5.4 1.0
2014-Sep-30 03:00 5.4 2.0
2014-Sep-30 02:00 5.4 2.0
2014-Sep-30 01:00 5.4 3.0
2014-Sep-30 00:00 5.4 4.0
2014-Sep-29 23:00 140 3 5.4 4.0
2014-Sep-29 22:00 180 7 5.4 5.0
2014-Sep-29 21:00 180 6 5.4 5.0
2014-Sep-29 20:00 180 8 5.4 6.0
2014-Sep-29 19:00 200 10 5.4 6.0
2014-Sep-29 18:00 200 10 5.4 6.0
2014-Sep-29 17:00 200 9 5.4 6.0
2014-Sep-29 16:00 230 6 5.4 5.0
2014-Sep-29 15:00 200 5 5.4 5.0
2014-Sep-29 14:00 230 6 5.4 3.0
2014-Sep-29 13:00 250 6 5.4 2.0
2014-Sep-29 12:00 250 6 5.418.0
2014-Sep-29 11:00 250 6 5.4 1.0
2014-Sep-29 10:15 230 5 5.4 1.0
2014-Sep-29 10:00 230 6 5.4 1.0 Light rain snow.
2014-Sep-29 09:00 200 8 5.4 2.0 Light rain snow.
2014-Sep-29 08:00 230 7 5.4 1.0
2014-Sep-29 07:00 270 9 5.4 2.0
2014-Sep-29 06:00 270 9 5.4 2.0
2014-Sep-29 05:00 270 12 5.4 3.0
2014-Sep-29 04:00 250 11 2.0